Wetterstation Vordersexau
Wetterdaten: Woche 29.08.16 - 04.09.16 (KW35)
Datum Zeit Temp. A. Feuchte A. Luftdruck Regen Wind Richtung Taupunkt Windchill Windben
01.09.2016 10:00 28,3 C 55 % 1021,1 hPa 78,2 l/m 0,0 km/h W-SW 18,4 C 28,3 C 0,0 km/h
01.09.2016 11:00 28,2 C 50 % 1021,4 hPa 0,0 l/m 0,0 km/h NW 16,8 C 28,2 C 0,0 km/h
01.09.2016 12:00 29,9 C 42 % 1020,8 hPa 0,0 l/m 0,0 km/h N 15,6 C 29,9 C 0,0 km/h
01.09.2016 13:00 31,8 C 34 % 1020,5 hPa 0,0 l/m 13,0 km/h W 14,0 C 31,6 C 7,2 km/h
01.09.2016 14:00 32,1 C 33 % 1020,0 hPa 0,0 l/m 2,6 km/h N 13,8 C 32,1 C 1,4 km/h
01.09.2016 15:00 32,2 C 32 % 1019,8 hPa 0,0 l/m 0,0 km/h NW 13,4 C 32,2 C 0,0 km/h
01.09.2016 16:00 33,3 C 31 % 1019,4 hPa 0,0 l/m 0,0 km/h O-NO 13,8 C 33,3 C 0,0 km/h
01.09.2016 17:00 35,8 C 29 % 1019,0 hPa 0,0 l/m 0,0 km/h W-NW 14,9 C 35,8 C 0,0 km/h
01.09.2016 18:00 35,9 C 27 % 1019,1 hPa 0,0 l/m 3,2 km/h N 13,9 C 35,9 C 1,8 km/h
01.09.2016 19:00 33,0 C 30 % 1019,0 hPa 0,0 l/m 2,6 km/h N 13,1 C 33,0 C 1,4 km/h
01.09.2016 20:00 23,2 C 47 % 1019,2 hPa 0,0 l/m 0,0 km/h N-NO 11,3 C 23,2 C 0,0 km/h
01.09.2016 21:00 19,3 C 60 % 1019,8 hPa 0,0 l/m 0,0 km/h O-SO 11,3 C 19,3 C 0,0 km/h
01.09.2016 22:00 17,9 C 67 % 1019,9 hPa 0,0 l/m 0,0 km/h SO 11,7 C 17,9 C 0,0 km/h
01.09.2016 23:00 17,2 C 70 % 1019,9 hPa 0,0 l/m 0,0 km/h O-SO 11,7 C 17,2 C 0,0 km/h
02.09.2016 00:00 16,3 C 72 % 1020,1 hPa 0,0 l/m 0,0 km/h O-SO 11,2 C 16,3 C 0,0 km/h
02.09.2016 01:00 15,3 C 76 % 1020,1 hPa 0,0 l/m 0,0 km/h O-SO 11,1 C 15,3 C 0,0 km/h
02.09.2016 02:00 14,5 C 77 % 1019,8 hPa 0,0 l/m 0,0 km/h SO 10,5 C 14,5 C 0,0 km/h
02.09.2016 03:00 14,1 C 79 % 1019,6 hPa 0,0 l/m 0,0 km/h O-SO 10,5 C 14,1 C 0,0 km/h
02.09.2016 04:00 13,8 C 80 % 1019,6 hPa 0,0 l/m 0,0 km/h O-NO 10,4 C 13,8 C 0,0 km/h
02.09.2016 05:00 13,6 C 81 % 1019,4 hPa 0,0 l/m 0,0 km/h O-NO 10,4 C 13,6 C 0,0 km/h
02.09.2016 06:00 13,1 C 82 % 1019,3 hPa 0,0 l/m 0,0 km/h O 10,1 C 13,1 C 0,0 km/h
02.09.2016 07:00 12,7 C 82 % 1019,7 hPa 0,0 l/m 0,0 km/h SO 9,7 C 12,7 C 0,0 km/h
02.09.2016 08:00 15,1 C 82 % 1020,0 hPa 0,0 l/m 20,1 km/h O-SO 12,0 C 9,9 C 11,2 km/h
02.09.2016 09:00 18,8 C 77 % 1019,7 hPa 0,0 l/m 0,0 km/h N 14,7 C 18,8 C 0,0 km/h
02.09.2016 10:00 25,8 C 55 % 1019,5 hPa 0,0 l/m 0,0 km/h NW 16,1 C 25,8 C 0,0 km/h
02.09.2016 11:00 27,9 C 47 % 1019,5 hPa 0,0 l/m 0,0 km/h W 15,5 C 27,9 C 0,0 km/h
02.09.2016 12:00 29,3 C 43 % 1019,0 hPa 0,0 l/m 0,0 km/h N-NW 15,4 C 29,3 C 0,0 km/h
02.09.2016 13:00 31,3 C 38 % 1018,3 hPa 0,0 l/m 0,0 km/h N-NO 15,3 C 31,3 C 0,0 km/h
02.09.2016 14:00 32,2 C 35 % 1017,9 hPa 0,0 l/m 3,2 km/h N 14,8 C 32,2 C 1,8 km/h
02.09.2016 15:00 33,3 C 32 % 1017,5 hPa 0,0 l/m 0,0 km/h N-NO 14,3 C 33,3 C 0,0 km/h
02.09.2016 16:00 32,5 C 33 % 1017,4 hPa 0,0 l/m 0,0 km/h NW 14,1 C 32,5 C 0,0 km/h
02.09.2016 17:00 32,4 C 34 % 1017,0 hPa 0,0 l/m 0,0 km/h N 14,5 C 32,4 C 0,0 km/h
02.09.2016 18:00 28,4 C 40 % 1016,4 hPa 0,0 l/m 1,9 km/h N 13,5 C 28,4 C 1,1 km/h
02.09.2016 19:00 28,4 C 40 % 1016,7 hPa 0,0 l/m 1,9 km/h N 13,5 C 28,4 C 1,1 km/h
02.09.2016 20:00 21,4 C 58 % 1017,0 hPa 0,0 l/m 0,0 km/h N 12,8 C 21,4 C 0,0 km/h
02.09.2016 21:00 18,3 C 69 % 1017,5 hPa 0,0 l/m 0,0 km/h N-NO 12,5 C 18,3 C 0,0 km/h
02.09.2016 22:00 17,2 C 73 % 1017,9 hPa 0,0 l/m 0,0 km/h O-NO 12,3 C 17,2 C 0,0 km/h
02.09.2016 23:00 16,1 C 77 % 1018,3 hPa 0,0 l/m 0,0 km/h O-NO 12,1 C 16,1 C 0,0 km/h
03.09.2016 00:00 15,9 C 78 % 1018,4 hPa 0,0 l/m 0,0 km/h O-NO 12,1 C 15,9 C 0,0 km/h
03.09.2016 01:00 15,4 C 80 % 1017,9 hPa 0,0 l/m 0,0 km/h O-NO 12,0 C 15,4 C 0,0 km/h
03.09.2016 02:00 14,6 C 81 % 1017,6 hPa 0,0 l/m 0,0 km/h O-NO 11,4 C 14,6 C 0,0 km/h
03.09.2016 03:00 13,9 C 82 % 1017,6 hPa 0,0 l/m 0,0 km/h SO 10,9 C 13,9 C 0,0 km/h
03.09.2016 04:00 13,9 C 83 % 1017,7 hPa 0,0 l/m 0,0 km/h O-SO 11,1 C 13,9 C 0,0 km/h
03.09.2016 05:00 13,6 C 83 % 1017,4 hPa 0,0 l/m 0,0 km/h O 10,8 C 13,6 C 0,0 km/h
03.09.2016 06:00 13,6 C 83 % 1017,2 hPa 0,0 l/m 0,0 km/h O-SO 10,8 C 13,6 C 0,0 km/h
03.09.2016 07:00 14,1 C 83 % 1017,6 hPa 0,0 l/m 0,0 km/h O-NO 11,3 C 14,1 C 0,0 km/h
03.09.2016 08:00 15,4 C 82 % 1017,8 hPa 0,0 l/m 0,0 km/h O-SO 12,3 C 15,4 C 0,0 km/h
03.09.2016 09:00 19,8 C 76 % 1017,8 hPa 0,0 l/m 0,0 km/h O-SO 15,4 C 19,8 C 0,0 km/h
03.09.2016 10:00 21,6 C 67 % 1018,1 hPa 0,0 l/m 2,6 km/h SO 15,2 C 21,6 C 1,4 km/h
03.09.2016 11:00 25,7 C 58 % 1017,9 hPa 0,0 l/m 0,0 km/h O-SO 16,8 C 25,7 C 0,0 km/h
03.09.2016 12:00 27,4 C 49 % 1017,5 hPa 0,0 l/m 0,0 km/h SW 15,7 C 27,4 C 0,0 km/h
03.09.2016 13:00 28,9 C 45 % 1017,2 hPa 0,0 l/m 1,9 km/h W-NW 15,8 C 28,9 C 1,1 km/h
03.09.2016 14:00 32,4 C 35 % 1016,6 hPa 0,0 l/m 13,6 km/h S-SW 14,9 C 32,3 C 7,6 km/h
03.09.2016 15:00 31,4 C 36 % 1016,2 hPa 0,0 l/m 0,0 km/h S-SW 14,5 C 31,4 C 0,0 km/h
03.09.2016 16:00 32,4 C 33 % 1015,5 hPa 0,0 l/m 11,0 km/h SW 14,0 C 32,3 C 6,1 km/h
03.09.2016 17:00 30,4 C 33 % 1015,1 hPa 0,0 l/m 3,2 km/h W 12,3 C 30,4 C 1,8 km/h
03.09.2016 18:00 31,4 C 34 % 1015,0 hPa 0,0 l/m 1,3 km/h S 13,6 C 31,4 C 0,7 km/h
03.09.2016 19:00 28,6 C 40 % 1014,7 hPa 0,0 l/m 0,0 km/h S 13,7 C 28,6 C 0,0 km/h
03.09.2016 20:00 22,3 C 54 % 1014,8 hPa 0,0 l/m 0,0 km/h S-SO 12,5 C 22,3 C 0,0 km/h
03.09.2016 21:00 19,4 C 64 % 1015,3 hPa 0,0 l/m 0,0 km/h S-SO 12,4 C 19,4 C 0,0 km/h
03.09.2016 22:00 17,8 C 68 % 1015,5 hPa 0,0 l/m 0,0 km/h S-SO 11,8 C 17,8 C 0,0 km/h
03.09.2016 23:00 16,6 C 72 % 1015,1 hPa 0,0 l/m 0,0 km/h NO 11,5 C 16,6 C 0,0 km/h
04.09.2016 00:00 16,2 C 75 % 1015,1 hPa 0,0 l/m 0,0 km/h NO 11,8 C 16,2 C 0,0 km/h
04.09.2016 01:00 15,6 C 76 % 1014,8 hPa 0,0 l/m 0,0 km/h SO 11,4 C 15,6 C 0,0 km/h
04.09.2016 02:00 15,3 C 77 % 1014,4 hPa 0,0 l/m 0,0 km/h O-SO 11,3 C 15,3 C 0,0 km/h
04.09.2016 03:00 14,9 C 78 % 1014,3 hPa 0,0 l/m 0,0 km/h O-SO 11,1 C 14,9 C 0,0 km/h
04.09.2016 04:00 14,6 C 79 % 1014,0 hPa 0,0 l/m 0,0 km/h O-SO 11,0 C 14,6 C 0,0 km/h
04.09.2016 05:00 14,2 C 80 % 1014,2 hPa 0,0 l/m 0,0 km/h O-SO 10,8 C 14,2 C 0,0 km/h
04.09.2016 06:00 13,8 C 82 % 1013,7 hPa 0,0 l/m 0,0 km/h O-SO 10,8 C 13,8 C 0,0 km/h
04.09.2016 07:00 13,8 C 82 % 1013,8 hPa 0,0 l/m 0,0 km/h O-SO 10,8 C 13,8 C 0,0 km/h
04.09.2016 08:00 15,9 C 82 % 1013,5 hPa 0,0 l/m 0,0 km/h O-SO 12,8 C 15,9 C 0,0 km/h
04.09.2016 09:00 20,9 C 74 % 1014,4 hPa 0,0 l/m 0,0 km/h O-NO 16,1 C 20,9 C 0,0 km/h
04.09.2016 10:00 21,5 C 71 % 1014,0 hPa 0,0 l/m 0,0 km/h N-NO 16,0 C 21,5 C 0,0 km/h
04.09.2016 11:00 24,5 C 62 % 1014,0 hPa 0,0 l/m 0,0 km/h S-SW 16,7 C 24,5 C 0,0 km/h
04.09.2016 12:00 26,2 C 55 % 1013,7 hPa 0,0 l/m 0,0 km/h W 16,4 C 26,2 C 0,0 km/h
04.09.2016 13:00 26,3 C 48 % 1013,5 hPa 0,0 l/m 18,1 km/h W-SW 14,4 C 24,5 C 10,1 km/h
04.09.2016 14:00 26,6 C 44 % 1013,0 hPa 0,0 l/m 19,4 km/h W-SW 13,3 C 24,8 C 10,8 km/h
04.09.2016 15:00 24,4 C 49 % 1013,5 hPa 0,0 l/m 1,3 km/h W-SW 13,0 C 24,4 C 0,7 km/h
04.09.2016 16:00 22,1 C 59 % 1014,4 hPa 0,0 l/m 14,9 km/h SO 13,7 C 19,8 C 8,3 km/h
04.09.2016 17:00 17,7 C 78 % 1015,4 hPa 1,0 l/m 7,8 km/h S-SO 13,8 C 17,0 C 4,3 km/h
04.09.2016 18:00 16,4 C 81 % 1015,7 hPa 2,1 l/m 0,0 km/h S 13,1 C 16,4 C 0,0 km/h
04.09.2016 19:00 15,4 C 82 % 1015,7 hPa 2,1 l/m 11,0 km/h S-SO 12,3 C 13,1 C 6,1 km/h
04.09.2016 20:00 15,7 C 82 % 1015,6 hPa 0,0 l/m 0,0 km/h W 12,6 C 15,7 C 0,0 km/h
04.09.2016 21:00 16,6 C 82 % 1015,8 hPa 0,0 l/m 0,6 km/h W-SW 13,5 C 16,6 C 0,4 km/h
04.09.2016 22:00 16,1 C 83 % 1015,9 hPa 0,5 l/m 14,3 km/h W-NW 13,2 C 12,7 C 7,9 km/h
04.09.2016 23:00 16,6 C 83 % 1016,5 hPa 0,0 l/m 6,5 km/h S-SW 13,7 C 16,6 C 3,6 km/h
Min-Datum _ 02.09.16 01.09.16 04.09.16 - 01.09.16 - 02.09.16 02.09.16 01.09.16
_ Min-Zeit 07:12 18:12 14:12 - 10:12 - 07:12 08:12 10:12
Minimum _ 12,7 C 27 % 1013,0 hPa - 0,0 km/h - 9,7 C 9,9 C 0,0 km/h
Max-Datum _ 01.09.16 03.09.16 01.09.16 01.09.16 02.09.16 - 01.09.16 01.09.16 02.09.16
_ Max-Zeit 18:12 04:12 11:12 10:12 08:12 - 10:12 18:12 08:12
Maximum _ 35,9 C 83 % 1021,4 hPa 78,2 l/m 20,1 km/h
O-SO
- 18,4 C 35,9 C 11,2 km/h
O-SO
Durchschnitt _ 21,8 C 62 % 1017,2 hPa #83,9 l/m 2,0 km/h O-SO 13,1 C 21,6 C 1,1 km/h
www.sexauwetter.de